createdAt,value
2017-08-22T00:00:42.401Z,101462.75
2017-08-22T00:03:09.741Z,101467.60
2017-08-22T00:05:36.916Z,101478.77
2017-08-22T00:08:04.604Z,101471.17
2017-08-22T00:10:31.780Z,101468.50
2017-08-22T00:13:00.311Z,101464.07
2017-08-22T00:15:27.776Z,101453.81
2017-08-22T00:17:55.039Z,101448.48
2017-08-22T00:20:22.213Z,101459.64
2017-08-22T00:22:49.386Z,101455.63
2017-08-22T00:25:16.926Z,101452.53
2017-08-22T00:27:44.765Z,101450.67
2017-08-22T00:30:11.961Z,101450.29
2017-08-22T00:32:39.174Z,101447.63
2017-08-22T00:35:06.349Z,101453.81
2017-08-22T00:37:33.776Z,101448.06
2017-08-22T00:40:01.156Z,101431.59
2017-08-22T00:42:29.313Z,101436.51
2017-08-22T00:44:56.517Z,101437.36
2017-08-22T00:47:23.913Z,101444.06
2017-08-22T00:49:51.426Z,101447.63
2017-08-22T00:52:18.944Z,101442.28
2017-08-22T00:54:46.286Z,101443.13
2017-08-22T00:57:13.746Z,101440.52
2017-08-22T00:59:41.272Z,101443.19
2017-08-22T01:02:08.657Z,101450.24
2017-08-22T01:04:36.120Z,101448.05
2017-08-22T01:07:03.885Z,101445.86
2017-08-22T01:09:31.517Z,101445.86
2017-08-22T01:11:58.703Z,101444.95
2017-08-22T01:14:25.888Z,101444.06
2017-08-22T01:16:53.076Z,101448.06
2017-08-22T01:19:20.686Z,101456.54
2017-08-22T01:21:48.180Z,101458.75
2017-08-22T01:24:15.349Z,101453.88
2017-08-22T01:26:42.616Z,101453.45
2017-08-22T01:29:10.133Z,101454.79
2017-08-22T01:31:37.321Z,101460.56
2017-08-22T01:34:04.671Z,101460.98
2017-08-22T01:36:31.861Z,101466.31
2017-08-22T01:38:59.294Z,101454.74
2017-08-22T01:41:27.056Z,101460.55
2017-08-22T01:43:54.615Z,101457.41
2017-08-22T01:46:21.971Z,101456.08
2017-08-22T01:48:49.596Z,101451.20
2017-08-22T01:51:17.192Z,101453.45
2017-08-22T01:53:44.533Z,101452.53
2017-08-22T01:56:12.414Z,101448.95
2017-08-22T01:58:40.177Z,101449.88
2017-08-22T02:01:07.463Z,101445.45
2017-08-22T02:03:34.978Z,101450.30
2017-08-22T02:06:02.550Z,101448.06
2017-08-22T02:08:29.720Z,101448.55
2017-08-22T02:10:57.208Z,101449.40
2017-08-22T02:13:24.605Z,101448.06
2017-08-22T02:15:51.795Z,101450.29
2017-08-22T02:18:18.962Z,101450.73
2017-08-22T02:20:46.147Z,101450.73
2017-08-22T02:23:13.720Z,101448.97
2017-08-22T02:25:41.287Z,101452.98
2017-08-22T02:28:08.537Z,101458.31
2017-08-22T02:30:35.711Z,101447.69
2017-08-22T02:33:03.042Z,101443.68
2017-08-22T02:35:30.637Z,101441.87
2017-08-22T02:37:57.947Z,101448.06
2017-08-22T02:40:25.138Z,101442.72
2017-08-22T02:42:52.555Z,101444.11
2017-08-22T02:45:19.740Z,101439.18
2017-08-22T02:47:47.165Z,101432.09
2017-08-22T02:50:14.689Z,101432.09
2017-08-22T02:52:42.080Z,101432.52
2017-08-22T02:55:09.541Z,101433.00
2017-08-22T02:57:36.991Z,101438.81
2017-08-22T03:00:04.172Z,101434.81
2017-08-22T03:02:31.601Z,101435.23
2017-08-22T03:04:58.788Z,101435.62
2017-08-22T03:07:26.318Z,101432.09
2017-08-22T03:09:53.665Z,101430.33
2017-08-22T03:12:21.174Z,101427.23
2017-08-22T03:14:48.580Z,101427.23
2017-08-22T03:17:15.764Z,101431.71
2017-08-22T03:19:43.181Z,101434.81
2017-08-22T03:22:10.844Z,101430.76
2017-08-22T03:24:38.027Z,101425.47
2017-08-22T03:27:05.201Z,101430.33
2017-08-22T03:29:32.396Z,101428.13
2017-08-22T03:31:59.565Z,101429.90
2017-08-22T03:34:27.056Z,101427.66
2017-08-22T03:36:54.474Z,101433.91
2017-08-22T03:39:21.645Z,101430.82
2017-08-22T03:41:48.813Z,101433.00
2017-08-22T03:44:16.453Z,101434.81
2017-08-22T03:46:43.636Z,101440.58
2017-08-22T03:49:10.824Z,101439.30
2017-08-22T03:51:38.285Z,101437.48
2017-08-22T03:54:05.744Z,101433.47
2017-08-22T03:56:33.391Z,101430.80
2017-08-22T03:59:00.584Z,101429.04
2017-08-22T04:01:27.874Z,101430.37
2017-08-22T04:03:55.056Z,101432.14
2017-08-22T04:06:22.241Z,101437.00
2017-08-22T04:08:49.409Z,101429.04
2017-08-22T04:11:16.712Z,101430.82
2017-08-22T04:13:44.064Z,101430.82
2017-08-22T04:16:11.247Z,101431.28
2017-08-22T04:18:38.477Z,101433.05
2017-08-22T04:21:05.650Z,101422.81
2017-08-22T04:23:33.161Z,101423.29
2017-08-22T04:26:00.337Z,101424.61
2017-08-22T04:28:27.871Z,101419.77
2017-08-22T04:30:55.313Z,101421.05
2017-08-22T04:33:22.605Z,101421.95
2017-08-22T04:35:50.061Z,101421.05
2017-08-22T04:38:17.565Z,101424.14
2017-08-22T04:40:45.083Z,101425.53
2017-08-22T04:43:12.428Z,101428.20
2017-08-22T04:45:39.769Z,101429.95
2017-08-22T04:48:06.951Z,101426.87
2017-08-22T04:50:34.125Z,101423.29
2017-08-22T04:53:01.398Z,101426.87
2017-08-22T04:55:28.792Z,101425.53
2017-08-22T04:57:55.966Z,101425.96
2017-08-22T05:00:23.405Z,101422.48
2017-08-22T05:02:50.917Z,101426.39
2017-08-22T05:05:18.320Z,101422.00
2017-08-22T05:07:45.781Z,101427.77
2017-08-22T05:10:13.146Z,101424.63
2017-08-22T05:12:40.331Z,101428.62
2017-08-22T05:15:07.509Z,101428.62
2017-08-22T05:17:34.992Z,101421.95
2017-08-22T05:20:02.183Z,101424.20
2017-08-22T05:22:29.375Z,101419.28
2017-08-22T05:24:56.800Z,101420.42
2017-08-22T05:27:24.394Z,101427.82
2017-08-22T05:29:51.567Z,101431.40
2017-08-22T05:32:19.004Z,101432.64
2017-08-22T05:34:46.610Z,101430.88
2017-08-22T05:37:13.785Z,101433.49
2017-08-22T05:39:41.281Z,101439.31
2017-08-22T05:42:08.635Z,101430.82
2017-08-22T05:44:36.291Z,101426.01
2017-08-22T05:47:03.532Z,101427.72
2017-08-22T05:49:31.007Z,101430.39
2017-08-22T05:51:58.177Z,101423.72
2017-08-22T05:54:25.610Z,101422.86
2017-08-22T05:56:52.785Z,101426.01
2017-08-22T05:59:19.971Z,101430.88
2017-08-22T06:01:47.157Z,101432.69
2017-08-22T06:04:14.348Z,101427.77
2017-08-22T06:06:41.521Z,101428.20
2017-08-22T06:09:08.708Z,101426.39
2017-08-22T06:11:35.885Z,101433.97
2017-08-22T06:14:03.119Z,101422.86
2017-08-22T06:16:30.290Z,101426.44
2017-08-22T06:18:57.789Z,101428.20
2017-08-22T06:21:24.981Z,101424.63
2017-08-22T06:23:52.159Z,101431.78
2017-08-22T06:26:19.488Z,101426.44
2017-08-22T06:28:46.969Z,101426.91
2017-08-22T06:31:14.351Z,101435.78
2017-08-22T06:33:41.540Z,101429.11
2017-08-22T06:36:09.036Z,101425.53
2017-08-22T06:38:36.206Z,101425.10
2017-08-22T06:41:03.626Z,101422.00
2017-08-22T06:43:30.797Z,101421.09
2017-08-22T06:45:58.408Z,101422.44
2017-08-22T06:48:25.680Z,101420.67
2017-08-22T06:50:53.136Z,101423.34
2017-08-22T06:53:20.305Z,101424.67
2017-08-22T06:55:47.487Z,101423.77
2017-08-22T06:58:14.971Z,101424.67
2017-08-22T07:00:42.156Z,101419.77
2017-08-22T07:03:09.343Z,101411.80
2017-08-22T07:05:36.753Z,101416.23
2017-08-22T07:08:04.107Z,101419.81
2017-08-22T07:10:31.566Z,101418.92
2017-08-22T07:12:58.738Z,101426.87
2017-08-22T07:15:26.172Z,101428.25
2017-08-22T07:17:53.631Z,101428.25
2017-08-22T07:20:21.088Z,101422.05
2017-08-22T07:22:48.257Z,101430.49
2017-08-22T07:25:15.691Z,101427.84
2017-08-22T07:27:42.876Z,101433.11
2017-08-22T07:30:10.061Z,101428.73
2017-08-22T07:32:37.254Z,101428.68
2017-08-22T07:35:04.791Z,101434.02
2017-08-22T07:37:32.379Z,101427.39
2017-08-22T07:39:59.558Z,101428.25
2017-08-22T07:42:26.725Z,101430.02
2017-08-22T07:44:54.117Z,101431.34
2017-08-22T07:47:21.304Z,101431.34
2017-08-22T07:49:48.951Z,101431.40
2017-08-22T07:52:16.505Z,101435.83
2017-08-22T07:54:44.029Z,101432.73
2017-08-22T07:57:11.469Z,101435.36
2017-08-22T07:59:38.988Z,101437.17
2017-08-22T08:02:06.405Z,101432.20
2017-08-22T08:04:33.773Z,101428.68
2017-08-22T08:07:00.941Z,101431.78
2017-08-22T08:09:28.144Z,101433.11
2017-08-22T08:11:55.337Z,101424.20
2017-08-22T08:14:22.592Z,101425.53
2017-08-22T08:16:49.783Z,101421.52
2017-08-22T08:19:16.996Z,101416.19
2017-08-22T08:21:44.165Z,101420.23
2017-08-22T08:24:11.908Z,101420.19
2017-08-22T08:26:39.356Z,101416.61
2017-08-22T08:29:06.825Z,101413.99
2017-08-22T08:31:34.273Z,101417.52
2017-08-22T08:34:01.728Z,101422.38
2017-08-22T08:36:28.916Z,101418.42
2017-08-22T08:38:56.335Z,101412.23
2017-08-22T08:41:23.887Z,101408.22
2017-08-22T08:43:51.379Z,101414.84
2017-08-22T08:46:18.571Z,101412.61
2017-08-22T08:48:46.041Z,101410.84
2017-08-22T08:51:13.533Z,101412.23
2017-08-22T08:53:40.705Z,101416.66
2017-08-22T08:56:07.925Z,101413.14
2017-08-22T08:58:35.460Z,101413.56
2017-08-22T09:01:03.053Z,101413.14
2017-08-22T09:03:30.611Z,101413.14
2017-08-22T09:05:58.054Z,101413.56
2017-08-22T09:08:25.629Z,101412.25
2017-08-22T09:10:52.796Z,101402.90
2017-08-22T09:13:20.190Z,101403.36
2017-08-22T09:15:47.361Z,101407.37
2017-08-22T09:18:14.739Z,101407.37
2017-08-22T09:20:42.245Z,101402.90
2017-08-22T09:23:09.421Z,101402.02
2017-08-22T09:25:36.607Z,101407.31
2017-08-22T09:28:03.952Z,101405.55
2017-08-22T09:30:31.592Z,101405.08
2017-08-22T09:32:58.765Z,101400.64
2017-08-22T09:35:26.325Z,101393.55
2017-08-22T09:37:53.512Z,101397.11
2017-08-22T09:40:20.924Z,101393.53
2017-08-22T09:42:48.302Z,101381.09
2017-08-22T09:45:15.566Z,101386.00
2017-08-22T09:47:42.751Z,101381.09
2017-08-22T09:50:09.926Z,101377.99
2017-08-22T09:52:37.102Z,101382.00
2017-08-22T09:55:04.288Z,101383.77
2017-08-22T09:57:31.684Z,101383.33
2017-08-22T09:59:59.177Z,101380.66
2017-08-22T10:02:26.364Z,101379.33
2017-08-22T10:04:53.657Z,101375.75
2017-08-22T10:07:21.179Z,101374.84
2017-08-22T10:09:48.353Z,101376.66
2017-08-22T10:12:15.709Z,101377.03
2017-08-22T10:14:43.231Z,101380.61
2017-08-22T10:17:10.419Z,101381.52
2017-08-22T10:19:37.784Z,101379.75
2017-08-22T10:22:05.434Z,101375.27
2017-08-22T10:24:32.648Z,101383.28
2017-08-22T10:26:59.835Z,101370.84
2017-08-22T10:29:27.015Z,101376.18
2017-08-22T10:31:54.530Z,101368.19
2017-08-22T10:34:21.706Z,101370.84
2017-08-22T10:36:49.115Z,101375.70
2017-08-22T10:39:16.517Z,101370.84
2017-08-22T10:41:43.976Z,101368.64
2017-08-22T10:44:11.493Z,101368.17
2017-08-22T10:46:38.893Z,101362.40
2017-08-22T10:49:06.087Z,101363.69
2017-08-22T10:51:33.271Z,101361.49
2017-08-22T10:54:00.433Z,101361.49
2017-08-22T10:56:27.795Z,101361.08
2017-08-22T10:58:54.965Z,101361.06
2017-08-22T11:01:22.517Z,101357.06
2017-08-22T11:03:49.719Z,101349.97
2017-08-22T11:06:17.008Z,101350.38
2017-08-22T11:08:44.199Z,101351.72
2017-08-22T11:11:11.689Z,101354.39
2017-08-22T11:13:39.076Z,101347.28
2017-08-22T11:16:06.249Z,101344.99
2017-08-22T11:18:33.741Z,101339.70
2017-08-22T11:21:01.141Z,101341.03
2017-08-22T11:23:28.323Z,101337.03
2017-08-22T11:25:55.750Z,101333.45
2017-08-22T11:28:23.258Z,101335.64
2017-08-22T11:30:50.430Z,101331.27
2017-08-22T11:33:17.813Z,101334.36
2017-08-22T11:35:45.270Z,101333.45
2017-08-22T11:38:12.782Z,101328.48
2017-08-22T11:40:40.186Z,101325.88
2017-08-22T11:43:07.380Z,101325.88
2017-08-22T11:45:34.932Z,101333.77
2017-08-22T11:48:02.561Z,101329.63
2017-08-22T11:50:29.733Z,101331.70
2017-08-22T11:52:57.161Z,101324.13
2017-08-22T11:55:24.626Z,101324.60
2017-08-22T11:57:52.273Z,101313.98
2017-08-22T12:00:19.449Z,101317.14
2017-08-22T12:02:46.685Z,101312.33
2017-08-22T12:05:14.201Z,101313.20
2017-08-22T12:07:41.373Z,101311.87
2017-08-22T12:10:09.060Z,101310.63
2017-08-22T12:12:36.512Z,101304.44
2017-08-22T12:15:04.045Z,101302.20
2017-08-22T12:17:31.231Z,101296.80
2017-08-22T12:19:58.581Z,101296.38
2017-08-22T12:22:26.033Z,101291.09
2017-08-22T12:24:53.220Z,101294.20
2017-08-22T12:27:20.388Z,101290.63
2017-08-22T12:29:48.577Z,101291.94
2017-08-22T12:32:16.044Z,101295.53
2017-08-22T12:34:43.215Z,101292.87
2017-08-22T12:37:10.382Z,101290.67
2017-08-22T12:39:37.621Z,101290.63
2017-08-22T12:42:05.140Z,101284.43
2017-08-22T12:44:32.310Z,101288.86
2017-08-22T12:46:59.827Z,101284.91
2017-08-22T12:49:27.140Z,101284.91
2017-08-22T12:51:54.332Z,101284.48
2017-08-22T12:54:21.500Z,101280.42
2017-08-22T12:56:48.680Z,101285.77
2017-08-22T12:59:16.363Z,101286.24
2017-08-22T13:01:43.881Z,101279.52
2017-08-22T13:04:11.373Z,101292.42
2017-08-22T13:06:38.915Z,101284.48
2017-08-22T13:09:06.498Z,101285.34
2017-08-22T13:11:33.999Z,101276.47
2017-08-22T13:14:01.520Z,101285.81
2017-08-22T13:16:28.760Z,101282.66
2017-08-22T13:18:56.014Z,101280.05
2017-08-22T13:21:23.186Z,101284.00
2017-08-22T13:23:50.367Z,101291.03
2017-08-22T13:26:17.537Z,101287.94
2017-08-22T13:28:44.954Z,101285.74
2017-08-22T13:31:12.467Z,101281.69
2017-08-22T13:33:40.035Z,101276.40
2017-08-22T13:36:07.213Z,101283.93
2017-08-22T13:38:34.595Z,101279.06
2017-08-22T13:41:01.768Z,101273.27
2017-08-22T13:43:28.942Z,101272.84
2017-08-22T13:45:56.197Z,101267.05
2017-08-22T13:48:23.373Z,101269.27
2017-08-22T13:50:50.553Z,101264.05
2017-08-22T13:53:17.957Z,101269.80
2017-08-22T13:55:45.145Z,101261.30
2017-08-22T13:58:12.328Z,101259.48
2017-08-22T14:00:39.507Z,101260.45
2017-08-22T14:03:06.922Z,101247.52
2017-08-22T14:05:34.515Z,101252.44
2017-08-22T14:08:02.091Z,101245.76
2017-08-22T14:10:29.261Z,101246.23
2017-08-22T14:12:56.702Z,101243.47
2017-08-22T14:15:24.335Z,101245.28
2017-08-22T14:17:51.509Z,101244.85
2017-08-22T14:20:18.844Z,101240.91
2017-08-22T14:22:46.015Z,101240.84
2017-08-22T14:25:13.369Z,101236.36
2017-08-22T14:27:41.000Z,101234.66
2017-08-22T14:30:08.593Z,101230.16
2017-08-22T14:32:36.033Z,101228.88
2017-08-22T14:35:03.687Z,101232.84
2017-08-22T14:37:30.954Z,101233.31
2017-08-22T14:39:58.129Z,101234.17
2017-08-22T14:42:25.312Z,101233.31
2017-08-22T14:44:52.499Z,101231.07
2017-08-22T14:47:19.675Z,101225.30
2017-08-22T14:49:47.012Z,101226.64
2017-08-22T14:52:14.525Z,101221.30
2017-08-22T14:54:41.929Z,101223.97
2017-08-22T14:57:09.115Z,101220.39
2017-08-22T14:59:36.300Z,101215.95
2017-08-22T15:02:03.480Z,101211.95
2017-08-22T15:04:30.836Z,101206.61
2017-08-22T15:06:58.293Z,101206.19
2017-08-22T15:09:25.465Z,101213.29
2017-08-22T15:11:52.901Z,101213.29
2017-08-22T15:14:20.408Z,101209.77
2017-08-22T15:16:47.618Z,101208.38
2017-08-22T15:19:14.803Z,101209.28
2017-08-22T15:21:42.310Z,101207.04
2017-08-22T15:24:09.567Z,101208.33
2017-08-22T15:26:37.039Z,101202.63
2017-08-22T15:29:04.484Z,101207.09
2017-08-22T15:31:31.945Z,101204.42
2017-08-22T15:33:59.117Z,101201.34
2017-08-22T15:36:26.865Z,101202.20
2017-08-22T15:38:54.031Z,101202.63
2017-08-22T15:41:21.465Z,101202.20
2017-08-22T15:43:49.020Z,101195.08
2017-08-22T15:46:16.193Z,101198.20
2017-08-22T15:48:43.362Z,101202.63
2017-08-22T15:51:10.875Z,101198.63
2017-08-22T15:53:38.115Z,101201.75
2017-08-22T15:56:06.882Z,101195.09
2017-08-22T15:58:34.058Z,101198.20
2017-08-22T16:01:01.427Z,101192.42
2017-08-22T16:03:28.627Z,101196.01
2017-08-22T16:05:55.838Z,101192.42
2017-08-22T16:08:23.188Z,101191.52
2017-08-22T16:10:50.644Z,101186.16
2017-08-22T16:13:18.256Z,101183.94
2017-08-22T16:15:45.872Z,101187.56
2017-08-22T16:18:13.059Z,101187.09
2017-08-22T16:20:40.787Z,101180.89
2017-08-22T16:23:08.426Z,101185.73
2017-08-22T16:25:35.611Z,101183.08
2017-08-22T16:28:03.156Z,101183.94
2017-08-22T16:30:30.343Z,101180.84
2017-08-22T16:32:57.508Z,101179.98
2017-08-22T16:35:24.707Z,101174.64
2017-08-22T16:37:51.881Z,101176.81
2017-08-22T16:40:19.276Z,101172.41
2017-08-22T16:42:46.668Z,101168.87
2017-08-22T16:45:14.311Z,101163.05
2017-08-22T16:47:41.893Z,101159.95
2017-08-22T16:50:09.345Z,101151.52
2017-08-22T16:52:36.532Z,101154.19
2017-08-22T16:55:03.701Z,101150.61
2017-08-22T16:57:30.889Z,101156.38
2017-08-22T16:59:58.071Z,101154.14
2017-08-22T17:02:25.400Z,101150.19
2017-08-22T17:04:52.581Z,101150.19
2017-08-22T17:07:20.195Z,101147.46
2017-08-22T17:09:47.537Z,101143.51
2017-08-22T17:12:14.718Z,101147.52
2017-08-22T17:14:42.072Z,101151.52
2017-08-22T17:17:09.535Z,101146.66
2017-08-22T17:19:36.721Z,101146.05
2017-08-22T17:22:04.252Z,101142.13
2017-08-22T17:24:31.452Z,101140.34
2017-08-22T17:26:58.635Z,101148.78
2017-08-22T17:29:25.894Z,101144.77
2017-08-22T17:31:53.341Z,101143.86
2017-08-22T17:34:20.527Z,101143.86
2017-08-22T17:36:47.702Z,101145.68
2017-08-22T17:39:15.224Z,101139.00
2017-08-22T17:41:42.742Z,101135.85
2017-08-22T17:44:10.013Z,101130.09
2017-08-22T17:46:37.481Z,101121.65
2017-08-22T17:49:04.671Z,101115.90
2017-08-22T17:51:32.086Z,101129.20
2017-08-22T17:53:59.277Z,101130.59
2017-08-22T17:56:26.450Z,101130.59
2017-08-22T17:58:54.160Z,101130.59
2017-08-22T18:01:21.344Z,101128.77
2017-08-22T18:03:48.761Z,101128.34
2017-08-22T18:06:16.529Z,101135.88
2017-08-22T18:08:44.016Z,101133.69
2017-08-22T18:11:11.189Z,101133.20
2017-08-22T18:13:38.373Z,101135.02
2017-08-22T18:16:05.545Z,101143.45
2017-08-22T18:18:32.808Z,101139.94
2017-08-22T18:20:59.992Z,101139.50
2017-08-22T18:23:27.566Z,101137.69
2017-08-22T18:25:54.742Z,101135.88
2017-08-22T18:28:22.102Z,101135.92
2017-08-22T18:30:49.561Z,101139.02
2017-08-22T18:33:16.744Z,101140.78
2017-08-22T18:35:43.932Z,101143.03
2017-08-22T18:38:11.102Z,101142.60
2017-08-22T18:40:38.291Z,101143.03
2017-08-22T18:43:05.621Z,101149.70
2017-08-22T18:45:33.077Z,101155.05
2017-08-22T18:48:00.254Z,101154.14
2017-08-22T18:50:28.303Z,101159.91
2017-08-22T18:52:55.801Z,101157.29
2017-08-22T18:55:23.218Z,101154.56
2017-08-22T18:57:50.862Z,101158.14
2017-08-22T19:00:18.128Z,101153.28
2017-08-22T19:02:45.306Z,101153.71
2017-08-22T19:05:12.966Z,101153.69
2017-08-22T19:07:40.199Z,101156.81
2017-08-22T19:10:07.776Z,101156.79
2017-08-22T19:12:35.417Z,101160.79
2017-08-22T19:15:02.594Z,101159.88
2017-08-22T19:17:30.015Z,101158.57
2017-08-22T19:19:57.468Z,101156.36
2017-08-22T19:22:24.712Z,101155.91
2017-08-22T19:24:51.900Z,101160.79
2017-08-22T19:27:19.296Z,101159.70
2017-08-22T19:29:46.548Z,101157.34
